Wetterdaten: Woche 18.09.17 - 24.09.17 (KW38)
Datum Zeit Temp. Aussen Temp. o. S. +5cm Feuchte Auss BlattFeu 1 Luftdruck Regen Sonnenschein Regendauer Solar Windben Empfang
18.09.2017 00:00 9,0 C 8,4 C 7,2 C 92 % 15 lf 1012,4 hPa 0,0 l/m 0,00 h 0,00 h 4 W/m 8,1 km/h (2 Bft) 94,21 %
18.09.2017 01:00 9,2 C 8,7 C 7,1 C 94 % 14 lf 1012,2 hPa 0,0 l/m 0,00 h 0,00 h 5 W/m 8,5 km/h (2 Bft) 96,80 %
18.09.2017 02:00 9,4 C 9,4 C 7,9 C 95 % 1 lf 1012,1 hPa 0,0 l/m 0,00 h 0,00 h 5 W/m 9,5 km/h (2 Bft) 96,94 %
18.09.2017 03:00 9,8 C 9,7 C 8,2 C 94 % 0 lf 1012,2 hPa 0,0 l/m 0,00 h 0,00 h 5 W/m 11,8 km/h (2 Bft) 96,80 %
18.09.2017 04:00 9,9 C 9,8 C 8,3 C 93 % 0 lf 1012,3 hPa 0,0 l/m 0,00 h 0,00 h 5 W/m 12,4 km/h (3 Bft) 94,06 %
18.09.2017 05:00 10,1 C 9,9 C 8,7 C 93 % 1 lf 1012,2 hPa 0,0 l/m 0,00 h 0,17 h 5 W/m 10,0 km/h (2 Bft) 94,67 %
18.09.2017 06:00 10,1 C 9,9 C 8,6 C 93 % 0 lf 1012,4 hPa 0,0 l/m 0,00 h 0,00 h 5 W/m 9,7 km/h (2 Bft) 97,44 %
18.09.2017 07:00 9,9 C 10,0 C 8,9 C 93 % 0 lf 1012,6 hPa 0,0 l/m 0,00 h 0,00 h 15 W/m 10,0 km/h (2 Bft) 97,87 %
18.09.2017 08:00 10,2 C 10,7 C 9,6 C 93 % 0 lf 1012,7 hPa 0,0 l/m 0,07 h 0,00 h 60 W/m 10,8 km/h (2 Bft) 96,08 %
18.09.2017 09:00 10,8 C 11,7 C 10,9 C 92 % 0 lf 1013,0 hPa 0,0 l/m 0,07 h 0,00 h 100 W/m 13,5 km/h (3 Bft) 95,21 %
18.09.2017 10:00 11,7 C 12,6 C 12,1 C 91 % 0 lf 1013,2 hPa 0,0 l/m 0,03 h 0,07 h 150 W/m 18,7 km/h (3 Bft) 96,65 %
18.09.2017 11:00 11,9 C 12,3 C 11,4 C 92 % 15 lf 1013,3 hPa 1,0 l/m 0,27 h 0,50 h 203 W/m 15,9 km/h (3 Bft) 96,80 %
18.09.2017 12:00 12,9 C 13,6 C 12,8 C 93 % 4 lf 1013,5 hPa 0,0 l/m 0,17 h 0,00 h 239 W/m 18,5 km/h (3 Bft) 95,59 %
18.09.2017 13:00 14,5 C 19,9 C 13,7 C 88 % 0 lf 1013,3 hPa 0,0 l/m 0,87 h 0,00 h 630 W/m 17,1 km/h (3 Bft) 97,36 %
18.09.2017 14:00 16,1 C 20,5 C 15,5 C 78 % 0 lf 1012,9 hPa 0,0 l/m 0,80 h 0,00 h 521 W/m 22,7 km/h (4 Bft) 94,82 %
18.09.2017 15:00 14,4 C 12,9 C 12,5 C 81 % 11 lf 1013,0 hPa 1,2 l/m 0,20 h 0,40 h 215 W/m 16,2 km/h (3 Bft) 97,19 %
18.09.2017 16:00 12,9 C 11,3 C 10,8 C 89 % 15 lf 1013,4 hPa 4,0 l/m 0,43 h 0,97 h 259 W/m 12,8 km/h (3 Bft) 96,68 %
18.09.2017 17:00 11,1 C 10,2 C 9,9 C 93 % 15 lf 1013,4 hPa 2,2 l/m 0,07 h 1,00 h 62 W/m 10,5 km/h (2 Bft) 96,01 %
18.09.2017 18:00 11,3 C 10,8 C 10,4 C 95 % 15 lf 1013,4 hPa 0,2 l/m 0,27 h 0,40 h 69 W/m 8,7 km/h (2 Bft) 97,24 %
18.09.2017 19:00 11,0 C 10,1 C 9,5 C 95 % 15 lf 1013,5 hPa 0,0 l/m 0,00 h 0,00 h 12 W/m 8,7 km/h (2 Bft) 95,44 %
18.09.2017 20:00 10,8 C 10,3 C 9,4 C 96 % 15 lf 1013,9 hPa 0,0 l/m 0,00 h 0,10 h 5 W/m 6,4 km/h (2 Bft) 95,16 %
18.09.2017 21:00 11,0 C 10,3 C 9,4 C 96 % 15 lf 1014,1 hPa 0,0 l/m 0,00 h 0,00 h 0 W/m 10,8 km/h (2 Bft) 98,91 %
18.09.2017 22:00 10,8 C 10,3 C 9,4 C 97 % 15 lf 1014,2 hPa 0,0 l/m 0,00 h 0,00 h 0 W/m 11,0 km/h (2 Bft) 95,66 %
18.09.2017 23:00 11,1 C 10,6 C 10,0 C 97 % 15 lf 1014,4 hPa 0,0 l/m 0,00 h 0,00 h 0 W/m 12,0 km/h (2 Bft) 94,66 %
19.09.2017 00:00 11,2 C 10,6 C 10,0 C 97 % 15 lf 1014,3 hPa 0,0 l/m 0,00 h 0,00 h 0 W/m 14,2 km/h (3 Bft) 97,26 %
19.09.2017 01:00 11,1 C 10,6 C 10,0 C 98 % 15 lf 1014,4 hPa 0,0 l/m 0,00 h 0,00 h 0 W/m 14,3 km/h (3 Bft) 97,08 %
19.09.2017 02:00 10,9 C 10,6 C 10,0 C 98 % 15 lf 1014,4 hPa 0,0 l/m 0,00 h 0,00 h 0 W/m 11,7 km/h (2 Bft) 95,44 %
19.09.2017 03:00 10,9 C 10,6 C 10,0 C 98 % 5 lf 1014,3 hPa 0,0 l/m 0,00 h 0,00 h 0 W/m 11,0 km/h (2 Bft) 93,03 %
19.09.2017 04:00 10,8 C 10,6 C 10,0 C 98 % 1 lf 1014,3 hPa 0,0 l/m 0,00 h 0,00 h 0 W/m 9,6 km/h (2 Bft) 94,17 %
19.09.2017 05:00 10,8 C 10,6 C 10,0 C 98 % 1 lf 1014,4 hPa 0,0 l/m 0,00 h 0,00 h 0 W/m 10,5 km/h (2 Bft) 94,95 %
19.09.2017 06:00 10,8 C 10,6 C 10,0 C 98 % 4 lf 1014,5 hPa 0,0 l/m 0,00 h 0,17 h 3 W/m 10,1 km/h (2 Bft) 94,11 %
19.09.2017 07:00 10,9 C 10,6 C 9,7 C 98 % 15 lf 1014,9 hPa 3,8 l/m 0,00 h 0,97 h 7 W/m 7,2 km/h (2 Bft) 92,03 %
19.09.2017 08:00 10,8 C 10,7 C 9,9 C 98 % 15 lf 1015,2 hPa 0,8 l/m 0,00 h 0,13 h 30 W/m 8,3 km/h (2 Bft) 96,23 %
19.09.2017 09:00 11,1 C 11,1 C 10,7 C 98 % 15 lf 1015,7 hPa 0,0 l/m 0,00 h 0,00 h 36 W/m 4,6 km/h (1 Bft) 93,81 %
19.09.2017 10:00 11,3 C 11,4 C 10,7 C 98 % 15 lf 1016,2 hPa 0,0 l/m 0,00 h 0,00 h 51 W/m 5,8 km/h (2 Bft) 94,51 %
19.09.2017 11:00 11,7 C 12,3 C 11,5 C 98 % 15 lf 1016,8 hPa 0,2 l/m 0,07 h 0,23 h 121 W/m 3,5 km/h (1 Bft) 92,88 %
19.09.2017 12:00 12,5 C 13,4 C 12,5 C 99 % 15 lf 1017,1 hPa 0,0 l/m 0,03 h 0,30 h 156 W/m 8,1 km/h (2 Bft) 94,39 %
19.09.2017 13:00 12,6 C 13,7 C 12,4 C 98 % 14 lf 1017,5 hPa 0,0 l/m 0,13 h 0,00 h 203 W/m 11,8 km/h (2 Bft) 92,63 %
19.09.2017 14:00 13,2 C 17,0 C 13,8 C 97 % 0 lf 1017,7 hPa 0,0 l/m 0,63 h 0,00 h 359 W/m 17,6 km/h (3 Bft) 95,37 %
19.09.2017 15:00 14,0 C 18,9 C 14,1 C 88 % 0 lf 1017,8 hPa 0,0 l/m 1,00 h 0,00 h 573 W/m 14,1 km/h (3 Bft) 92,73 %
19.09.2017 16:00 14,7 C 19,6 C 13,7 C 82 % 0 lf 1017,8 hPa 0,0 l/m 1,00 h 0,00 h 480 W/m 12,3 km/h (3 Bft) 94,76 %
19.09.2017 17:00 15,2 C 16,0 C 13,3 C 81 % 0 lf 1017,9 hPa 0,0 l/m 0,80 h 0,00 h 209 W/m 10,4 km/h (2 Bft) 95,22 %
19.09.2017 18:00 15,1 C 14,4 C 12,0 C 80 % 0 lf 1018,3 hPa 0,0 l/m 0,47 h 0,00 h 84 W/m 8,8 km/h (2 Bft) 92,69 %
19.09.2017 19:00 13,7 C 11,3 C 9,5 C 84 % 0 lf 1018,7 hPa 0,0 l/m 0,00 h 0,00 h 13 W/m 0,5 km/h (0 Bft) 93,64 %
19.09.2017 20:00 11,8 C 10,0 C 8,6 C 88 % 3 lf 1019,2 hPa 0,0 l/m 0,00 h 0,00 h 3 W/m 1,0 km/h (0 Bft) 93,16 %
19.09.2017 21:00 11,1 C 10,4 C 9,3 C 91 % 1 lf 1019,5 hPa 0,0 l/m 0,00 h 0,00 h 0 W/m 4,3 km/h (1 Bft) 93,66 %
19.09.2017 22:00 10,7 C 9,0 C 8,2 C 92 % 2 lf 1019,7 hPa 0,0 l/m 0,00 h 0,00 h 4 W/m 2,2 km/h (1 Bft) 93,55 %
19.09.2017 23:00 9,9 C 8,4 C 7,4 C 92 % 10 lf 1019,8 hPa 0,0 l/m 0,00 h 0,00 h 3 W/m 3,3 km/h (1 Bft) 95,95 %
20.09.2017 00:00 9,7 C 9,1 C 8,2 C 94 % 14 lf 1019,8 hPa 0,0 l/m 0,00 h 0,00 h 5 W/m 7,0 km/h (2 Bft) 92,10 %
20.09.2017 01:00 9,9 C 9,4 C 8,4 C 95 % 13 lf 1019,7 hPa 0,0 l/m 0,00 h 0,00 h 5 W/m 6,2 km/h (2 Bft) 98,43 %
20.09.2017 02:00 10,1 C 9,6 C 8,6 C 96 % 11 lf 1019,7 hPa 0,0 l/m 0,00 h 0,00 h 5 W/m 5,3 km/h (1 Bft) 98,07 %
20.09.2017 03:00 10,1 C 9,6 C 8,6 C 96 % 12 lf 1019,6 hPa 0,0 l/m 0,00 h 0,00 h 5 W/m 6,1 km/h (2 Bft) 95,37 %
20.09.2017 04:00 10,3 C 10,2 C 9,2 C 97 % 4 lf 1019,5 hPa 0,0 l/m 0,00 h 0,00 h 5 W/m 5,8 km/h (2 Bft) 96,60 %
20.09.2017 05:00 10,6 C 10,2 C 9,4 C 97 % 1 lf 1019,5 hPa 0,0 l/m 0,00 h 0,00 h 5 W/m 6,7 km/h (2 Bft) 97,08 %
20.09.2017 06:00 10,7 C 10,6 C 9,4 C 97 % 7 lf 1019,7 hPa 0,2 l/m 0,00 h 0,27 h 5 W/m 7,3 km/h (2 Bft) 96,79 %
20.09.2017 07:00 10,9 C 10,6 C 9,7 C 98 % 15 lf 1019,7 hPa 0,0 l/m 0,00 h 0,13 h 9 W/m 10,6 km/h (2 Bft) 97,80 %
20.09.2017 08:00 11,2 C 11,3 C 10,3 C 98 % 11 lf 1019,9 hPa 0,0 l/m 0,00 h 0,03 h 50 W/m 12,6 km/h (3 Bft) 95,19 %
20.09.2017 09:00 11,9 C 14,7 C 11,8 C 98 % 0 lf 1020,1 hPa 0,0 l/m 0,60 h 0,00 h 190 W/m 12,9 km/h (3 Bft) 95,68 %
20.09.2017 10:00 13,3 C 18,4 C 14,5 C 96 % 0 lf 1020,3 hPa 0,0 l/m 0,60 h 0,00 h 281 W/m 14,4 km/h (3 Bft) 98,86 %
20.09.2017 11:00 14,9 C 20,5 C 17,2 C 85 % 0 lf 1020,5 hPa 0,0 l/m 0,93 h 0,00 h 474 W/m 18,0 km/h (3 Bft) 94,53 %
20.09.2017 12:00 16,3 C 23,3 C 18,8 C 76 % 0 lf 1020,3 hPa 0,0 l/m 0,80 h 0,00 h 597 W/m 18,6 km/h (3 Bft) 95,51 %
20.09.2017 13:00 16,9 C 21,0 C 16,9 C 71 % 0 lf 1020,0 hPa 0,0 l/m 0,47 h 0,00 h 425 W/m 17,9 km/h (3 Bft) 98,79 %
20.09.2017 14:00 17,0 C 21,4 C 17,0 C 71 % 0 lf 1019,6 hPa 0,0 l/m 0,67 h 0,00 h 414 W/m 17,1 km/h (3 Bft) 94,78 %
20.09.2017 15:00 17,2 C 19,5 C 16,9 C 70 % 0 lf 1019,6 hPa 0,0 l/m 0,23 h 0,00 h 271 W/m 14,8 km/h (3 Bft) 96,40 %
20.09.2017 16:00 16,9 C 19,5 C 16,2 C 72 % 0 lf 1019,4 hPa 0,0 l/m 0,63 h 0,00 h 281 W/m 11,7 km/h (2 Bft) 97,01 %
20.09.2017 17:00 17,6 C 18,1 C 15,2 C 68 % 0 lf 1019,1 hPa 0,0 l/m 0,90 h 0,00 h 227 W/m 9,5 km/h (2 Bft) 95,66 %
20.09.2017 18:00 17,3 C 16,4 C 14,2 C 70 % 0 lf 1019,1 hPa 0,0 l/m 0,67 h 0,00 h 99 W/m 6,0 km/h (2 Bft) 98,27 %
20.09.2017 19:00 15,9 C 13,5 C 11,4 C 75 % 0 lf 1019,4 hPa 0,0 l/m 0,20 h 0,00 h 18 W/m 4,5 km/h (1 Bft) 93,38 %
20.09.2017 20:00 13,8 C 11,6 C 9,9 C 82 % 0 lf 1019,7 hPa 0,0 l/m 0,00 h 0,00 h 0 W/m 4,6 km/h (1 Bft) 97,79 %
20.09.2017 21:00 12,3 C 11,0 C 9,1 C 87 % 0 lf 1019,7 hPa 0,0 l/m 0,00 h 0,00 h 0 W/m 3,4 km/h (1 Bft) 96,80 %
20.09.2017 22:00 11,4 C 10,7 C 8,9 C 90 % 1 lf 1019,8 hPa 0,0 l/m 0,00 h 0,00 h 4 W/m 4,8 km/h (1 Bft) 96,58 %
20.09.2017 23:00 11,2 C 11,0 C 9,3 C 92 % 0 lf 1020,0 hPa 0,0 l/m 0,00 h 0,00 h 3 W/m 5,9 km/h (2 Bft) 96,51 %
21.09.2017 00:00 11,2 C 10,5 C 8,8 C 93 % 1 lf 1020,0 hPa 0,0 l/m 0,00 h 0,00 h 2 W/m 5,3 km/h (1 Bft) 95,70 %
21.09.2017 01:00 10,5 C 9,2 C 7,8 C 93 % 4 lf 1020,0 hPa 0,0 l/m 0,00 h 0,00 h 4 W/m 4,0 km/h (1 Bft) 96,08 %
21.09.2017 02:00 9,7 C 8,9 C 7,2 C 94 % 13 lf 1020,0 hPa 0,0 l/m 0,00 h 0,00 h 4 W/m 3,8 km/h (1 Bft) 98,29 %
21.09.2017 03:00 9,3 C 8,6 C 7,0 C 95 % 15 lf 1019,9 hPa 0,0 l/m 0,00 h 0,00 h 3 W/m 4,8 km/h (1 Bft) 95,23 %
21.09.2017 04:00 8,8 C 8,1 C 6,7 C 95 % 15 lf 1020,0 hPa 0,0 l/m 0,00 h 0,00 h 4 W/m 5,3 km/h (1 Bft) 96,48 %
21.09.2017 05:00 8,5 C 7,9 C 6,7 C 96 % 15 lf 1019,9 hPa 0,0 l/m 0,00 h 0,00 h 5 W/m 6,3 km/h (2 Bft) 96,22 %
21.09.2017 06:00 8,5 C 8,0 C 6,8 C 97 % 15 lf 1019,9 hPa 0,0 l/m 0,00 h 0,00 h 4 W/m 8,3 km/h (2 Bft) 97,75 %
21.09.2017 07:00 8,3 C 7,8 C 6,7 C 97 % 15 lf 1019,9 hPa 0,2 l/m 0,33 h 0,00 h 19 W/m 8,7 km/h (2 Bft) 95,37 %
21.09.2017 08:00 8,6 C 10,2 C 7,3 C 97 % 15 lf 1020,0 hPa 0,0 l/m 1,00 h 0,00 h 125 W/m 12,0 km/h (2 Bft) 95,37 %
21.09.2017 09:00 10,4 C 15,7 C 9,7 C 98 % 4 lf 1020,3 hPa 0,0 l/m 1,00 h 0,00 h 296 W/m 12,6 km/h (3 Bft) 97,87 %
21.09.2017 10:00 13,2 C 19,4 C 15,5 C 92 % 0 lf 1020,5 hPa 0,0 l/m 1,00 h 0,00 h 409 W/m 10,8 km/h (2 Bft) 97,08 %
21.09.2017 11:00 15,9 C 23,1 C 20,8 C 82 % 0 lf 1020,2 hPa 0,0 l/m 1,00 h 0,00 h 525 W/m 10,2 km/h (2 Bft) 93,82 %
21.09.2017 12:00 18,4 C 25,3 C 21,5 C 68 % 0 lf 1019,8 hPa 0,0 l/m 1,00 h 0,00 h 614 W/m 10,1 km/h (2 Bft) 97,57 %
21.09.2017 13:00 19,4 C 25,8 C 17,9 C 63 % 0 lf 1019,3 hPa 0,0 l/m 1,00 h 0,00 h 655 W/m 11,5 km/h (2 Bft) 97,30 %
21.09.2017 14:00 19,7 C 24,2 C 18,3 C 63 % 0 lf 1018,8 hPa 0,0 l/m 1,00 h 0,00 h 486 W/m 13,5 km/h (3 Bft) 96,05 %
21.09.2017 15:00 19,9 C 24,0 C 18,9 C 63 % 0 lf 1018,5 hPa 0,0 l/m 1,00 h 0,00 h 516 W/m 11,9 km/h (2 Bft) 96,63 %
21.09.2017 16:00 19,9 C 23,0 C 18,5 C 61 % 0 lf 1018,2 hPa 0,0 l/m 0,90 h 0,00 h 405 W/m 14,6 km/h (3 Bft) 95,89 %
21.09.2017 17:00 19,6 C 19,6 C 17,0 C 63 % 0 lf 1018,0 hPa 0,0 l/m 0,97 h 0,00 h 221 W/m 10,1 km/h (2 Bft) 97,42 %
21.09.2017 18:00 19,1 C 18,3 C 16,0 C 65 % 0 lf 1017,9 hPa 0,0 l/m 1,00 h 0,00 h 131 W/m 8,4 km/h (2 Bft) 96,30 %
21.09.2017 19:00 17,8 C 15,9 C 13,1 C 70 % 0 lf 1018,0 hPa 0,0 l/m 0,33 h 0,00 h 23 W/m 5,2 km/h (1 Bft) 96,30 %
21.09.2017 20:00 15,6 C 12,9 C 10,9 C 78 % 0 lf 1018,1 hPa 0,0 l/m 0,00 h 0,00 h 5 W/m 1,7 km/h (1 Bft) 96,81 %
21.09.2017 21:00 13,7 C 11,5 C 9,9 C 83 % 0 lf 1018,3 hPa 0,0 l/m 0,00 h 0,00 h 4 W/m 1,2 km/h (1 Bft) 96,93 %
21.09.2017 22:00 12,4 C 11,4 C 9,5 C 86 % 0 lf 1018,4 hPa 0,0 l/m 0,00 h 0,00 h 5 W/m 4,6 km/h (1 Bft) 98,60 %
21.09.2017 23:00 12,2 C 12,0 C 10,3 C 90 % 0 lf 1018,6 hPa 0,0 l/m 0,00 h 0,00 h 5 W/m 7,9 km/h (2 Bft) 94,27 %
22.09.2017 00:00 12,0 C 11,6 C 10,0 C 90 % 0 lf 1018,7 hPa 0,0 l/m 0,00 h 0,00 h 5 W/m 7,2 km/h (2 Bft) 96,55 %
22.09.2017 01:00 11,6 C 11,0 C 9,6 C 92 % 0 lf 1018,8 hPa 0,0 l/m 0,00 h 0,00 h 3 W/m 9,1 km/h (2 Bft) 98,90 %
22.09.2017 02:00 11,1 C 10,6 C 9,3 C 93 % 0 lf 1018,7 hPa 0,0 l/m 0,00 h 0,00 h 2 W/m 8,7 km/h (2 Bft) 94,11 %
22.09.2017 03:00 10,6 C 10,0 C 8,7 C 94 % 1 lf 1018,5 hPa 0,0 l/m 0,00 h 0,00 h 0 W/m 7,1 km/h (2 Bft) 96,94 %
22.09.2017 04:00 10,2 C 9,5 C 8,3 C 94 % 1 lf 1018,3 hPa 0,0 l/m 0,00 h 0,00 h 4 W/m 7,8 km/h (2 Bft) 96,85 %
22.09.2017 05:00 9,7 C 8,8 C 7,4 C 95 % 4 lf 1018,3 hPa 0,0 l/m 0,00 h 0,00 h 3 W/m 5,0 km/h (1 Bft) 95,64 %
22.09.2017 06:00 9,1 C 8,3 C 7,1 C 95 % 13 lf 1018,4 hPa 0,0 l/m 0,00 h 0,00 h 0 W/m 5,2 km/h (1 Bft) 97,65 %
22.09.2017 07:00 8,9 C 8,5 C 7,2 C 96 % 15 lf 1018,6 hPa 0,0 l/m 0,00 h 0,00 h 16 W/m 8,1 km/h (2 Bft) 95,66 %
22.09.2017 08:00 9,2 C 11,5 C 7,9 C 97 % 14 lf 1018,9 hPa 0,0 l/m 0,70 h 0,00 h 111 W/m 5,7 km/h (1 Bft) 95,63 %
22.09.2017 09:00 11,3 C 17,9 C 11,1 C 98 % 0 lf 1019,2 hPa 0,0 l/m 0,97 h 0,00 h 253 W/m 6,6 km/h (2 Bft) 99,11 %
22.09.2017 10:00 14,0 C 21,5 C 16,2 C 90 % 0 lf 1019,4 hPa 0,0 l/m 1,00 h 0,00 h 404 W/m 4,6 km/h (1 Bft) 95,25 %
22.09.2017 11:00 17,0 C 22,0 C 19,5 C 79 % 0 lf 1019,4 hPa 0,0 l/m 1,00 h 0,00 h 451 W/m 5,2 km/h (1 Bft) 96,28 %
22.09.2017 12:00 18,6 C 25,3 C 20,9 C 72 % 0 lf 1019,3 hPa 0,0 l/m 1,00 h 0,00 h 551 W/m 6,6 km/h (2 Bft) 99,23 %
22.09.2017 13:00 20,2 C 28,0 C 19,7 C 67 % 0 lf 1019,2 hPa 0,0 l/m 1,00 h 0,00 h 688 W/m 7,9 km/h (2 Bft) 94,16 %
22.09.2017 14:00 20,6 C 26,4 C 20,4 C 65 % 0 lf 1019,1 hPa 0,0 l/m 1,00 h 0,00 h 525 W/m 10,0 km/h (2 Bft) 96,88 %
22.09.2017 15:00 20,4 C 21,9 C 20,2 C 66 % 0 lf 1019,3 hPa 0,0 l/m 1,00 h 0,00 h 632 W/m 8,1 km/h (2 Bft) 97,50 %
22.09.2017 16:00 20,0 C 21,7 C 20,0 C 68 % 0 lf 1019,3 hPa 0,0 l/m 1,00 h 0,00 h 485 W/m 7,6 km/h (2 Bft) 95,80 %
22.09.2017 17:00 19,5 C 18,2 C 17,4 C 71 % 6 lf 1019,5 hPa 0,2 l/m 1,00 h 0,43 h 323 W/m 8,1 km/h (2 Bft) 97,01 %
22.09.2017 18:00 17,8 C 15,5 C 14,4 C 82 % 8 lf 1019,8 hPa 0,0 l/m 0,30 h 0,17 h 80 W/m 8,3 km/h (2 Bft) 96,73 %
22.09.2017 19:00 16,7 C 15,8 C 13,9 C 86 % 0 lf 1020,2 hPa 0,0 l/m 0,00 h 0,03 h 12 W/m 5,2 km/h (1 Bft) 96,36 %
22.09.2017 20:00 16,1 C 15,1 C 13,6 C 89 % 3 lf 1020,8 hPa 0,0 l/m 0,00 h 0,13 h 2 W/m 3,9 km/h (1 Bft) 95,87 %
22.09.2017 21:00 15,7 C 14,1 C 13,3 C 91 % 15 lf 1021,3 hPa 0,6 l/m 0,00 h 0,83 h 0 W/m 5,6 km/h (1 Bft) 96,80 %
22.09.2017 22:00 15,0 C 13,9 C 12,8 C 93 % 15 lf 1021,5 hPa 0,0 l/m 0,00 h 0,03 h 5 W/m 5,0 km/h (1 Bft) 97,93 %
22.09.2017 23:00 14,8 C 13,9 C 12,8 C 94 % 15 lf 1021,7 hPa 0,2 l/m 0,00 h 0,57 h 5 W/m 3,5 km/h (1 Bft) 94,73 %
23.09.2017 00:00 14,5 C 13,6 C 12,6 C 95 % 15 lf 1021,8 hPa 0,0 l/m 0,00 h 0,00 h 5 W/m 1,6 km/h (1 Bft) 96,39 %
23.09.2017 01:00 14,1 C 12,8 C 11,7 C 95 % 15 lf 1022,1 hPa 0,0 l/m 0,00 h 0,00 h 5 W/m 2,3 km/h (1 Bft) 96,67 %
23.09.2017 02:00 13,5 C 12,6 C 11,7 C 95 % 15 lf 1022,2 hPa 0,0 l/m 0,00 h 0,00 h 4 W/m 3,5 km/h (1 Bft) 98,08 %
23.09.2017 03:00 13,4 C 12,8 C 12,1 C 96 % 15 lf 1022,5 hPa 0,0 l/m 0,00 h 0,00 h 0 W/m 1,8 km/h (1 Bft) 94,58 %
23.09.2017 04:00 13,1 C 12,3 C 11,6 C 96 % 15 lf 1022,7 hPa 0,0 l/m 0,00 h 0,00 h 0 W/m 8,6 km/h (2 Bft) 96,38 %
23.09.2017 05:00 12,5 C 11,8 C 11,1 C 97 % 15 lf 1022,8 hPa 0,0 l/m 0,00 h 0,00 h 0 W/m 7,6 km/h (2 Bft) 97,56 %
23.09.2017 06:00 12,2 C 11,7 C 11,1 C 97 % 15 lf 1022,8 hPa 0,0 l/m 0,00 h 0,00 h 0 W/m 3,2 km/h (1 Bft) 97,07 %
23.09.2017 07:00 12,2 C 11,7 C 11,0 C 97 % 15 lf 1022,9 hPa 0,0 l/m 0,00 h 0,00 h 11 W/m 1,8 km/h (1 Bft) 94,20 %
23.09.2017 08:00 12,1 C 11,7 C 11,1 C 98 % 15 lf 1023,2 hPa 0,0 l/m 0,00 h 0,00 h 23 W/m 5,0 km/h (1 Bft) 97,93 %
23.09.2017 09:00 12,3 C 12,7 C 12,0 C 98 % 15 lf 1023,5 hPa 0,0 l/m 0,00 h 0,00 h 81 W/m 5,7 km/h (1 Bft) 96,30 %
23.09.2017 10:00 12,9 C 14,6 C 13,2 C 98 % 8 lf 1023,9 hPa 0,0 l/m 0,10 h 0,00 h 169 W/m 4,5 km/h (1 Bft) 96,59 %
23.09.2017 11:00 14,0 C 21,7 C 15,1 C 98 % 0 lf 1023,8 hPa 0,0 l/m 0,90 h 0,00 h 448 W/m 5,3 km/h (1 Bft) 96,37 %
23.09.2017 12:00 15,4 C 22,3 C 16,8 C 89 % 0 lf 1023,5 hPa 0,0 l/m 1,00 h 0,00 h 715 W/m 6,7 km/h (2 Bft) 97,65 %
23.09.2017 13:00 16,6 C 24,1 C 16,6 C 80 % 0 lf 1023,2 hPa 0,0 l/m 0,97 h 0,00 h 662 W/m 7,6 km/h (2 Bft) 94,74 %
23.09.2017 14:00 18,7 C 26,8 C 18,5 C 73 % 0 lf 1022,8 hPa 0,0 l/m 0,97 h 0,00 h 626 W/m 9,2 km/h (2 Bft) 96,79 %
23.09.2017 15:00 18,6 C 22,3 C 17,8 C 71 % 0 lf 1022,4 hPa 0,0 l/m 0,47 h 0,00 h 312 W/m 5,8 km/h (2 Bft) 98,36 %
23.09.2017 16:00 19,1 C 24,3 C 18,2 C 70 % 0 lf 1021,9 hPa 0,0 l/m 1,00 h 0,00 h 433 W/m 10,7 km/h (2 Bft) 94,87 %
23.09.2017 17:00 18,7 C 19,7 C 16,6 C 71 % 0 lf 1021,6 hPa 0,0 l/m 1,00 h 0,00 h 228 W/m 10,6 km/h (2 Bft) 96,65 %
23.09.2017 18:00 17,7 C 17,2 C 15,4 C 75 % 0 lf 1021,5 hPa 0,0 l/m 0,50 h 0,00 h 76 W/m 10,4 km/h (2 Bft) 97,99 %
23.09.2017 19:00 16,4 C 14,9 C 13,5 C 80 % 0 lf 1021,7 hPa 0,0 l/m 0,30 h 0,00 h 17 W/m 6,7 km/h (2 Bft) 95,41 %
23.09.2017 20:00 14,8 C 12,3 C 10,7 C 83 % 0 lf 1021,9 hPa 0,0 l/m 0,00 h 0,00 h 4 W/m 3,1 km/h (1 Bft) 95,31 %
23.09.2017 21:00 13,2 C 10,8 C 9,6 C 87 % 2 lf 1021,9 hPa 0,0 l/m 0,00 h 0,00 h 3 W/m 0,6 km/h (0 Bft) 99,28 %
23.09.2017 22:00 12,0 C 9,8 C 8,9 C 89 % 7 lf 1021,8 hPa 0,0 l/m 0,00 h 0,00 h 5 W/m 0,0 km/h (0 Bft) 95,01 %
23.09.2017 23:00 11,2 C 9,1 C 8,4 C 91 % 15 lf 1021,8 hPa 0,0 l/m 0,00 h 0,00 h 5 W/m 0,0 km/h (0 Bft) 96,28 %
24.09.2017 00:00 10,5 C 8,6 C 7,9 C 92 % 15 lf 1021,8 hPa 0,0 l/m 0,00 h 0,00 h 5 W/m 0,0 km/h (0 Bft) 96,59 %
24.09.2017 01:00 9,8 C 8,0 C 7,5 C 93 % 15 lf 1021,7 hPa 0,0 l/m 0,00 h 0,00 h 5 W/m 0,0 km/h (0 Bft) 95,31 %
24.09.2017 02:00 9,3 C 7,8 C 7,1 C 94 % 15 lf 1021,5 hPa 0,0 l/m 0,00 h 0,00 h 5 W/m 0,0 km/h (0 Bft) 97,86 %
24.09.2017 03:00 8,9 C 7,2 C 6,7 C 94 % 15 lf 1021,4 hPa 0,0 l/m 0,00 h 0,00 h 5 W/m 0,0 km/h (0 Bft) 96,73 %
24.09.2017 04:00 8,4 C 7,0 C 6,6 C 94 % 15 lf 1021,3 hPa 0,2 l/m 0,00 h 0,00 h 5 W/m 1,1 km/h (1 Bft) 94,88 %
24.09.2017 05:00 8,2 C 7,7 C 7,1 C 95 % 15 lf 1021,3 hPa 0,0 l/m 0,00 h 0,00 h 5 W/m 1,3 km/h (1 Bft) 96,19 %
24.09.2017 06:00 8,3 C 7,8 C 7,2 C 96 % 15 lf 1021,3 hPa 0,0 l/m 0,00 h 0,03 h 0 W/m 2,2 km/h (1 Bft) 97,52 %
24.09.2017 07:00 8,4 C 8,2 C 7,6 C 96 % 15 lf 1021,4 hPa 0,0 l/m 0,00 h 0,00 h 15 W/m 2,2 km/h (1 Bft) 95,77 %
24.09.2017 08:00 8,7 C 8,9 C 8,0 C 97 % 15 lf 1021,8 hPa 0,0 l/m 0,00 h 0,00 h 61 W/m 2,8 km/h (1 Bft) 96,59 %
24.09.2017 09:00 9,5 C 10,2 C 9,4 C 98 % 15 lf 1021,9 hPa 0,0 l/m 0,23 h 0,00 h 147 W/m 3,2 km/h (1 Bft) 95,77 %
24.09.2017 10:00 10,9 C 13,6 C 11,8 C 98 % 13 lf 1022,0 hPa 0,0 l/m 1,00 h 0,00 h 293 W/m 3,1 km/h (1 Bft) 97,65 %
24.09.2017 11:00 13,3 C 22,7 C 18,4 C 99 % 0 lf 1022,2 hPa 0,0 l/m 1,00 h 0,00 h 569 W/m 3,6 km/h (1 Bft) 96,58 %
24.09.2017 12:00 16,4 C 26,8 C 20,3 C 94 % 0 lf 1021,9 hPa 0,0 l/m 1,00 h 0,00 h 633 W/m 6,7 km/h (2 Bft) 96,81 %
24.09.2017 13:00 19,2 C 26,9 C 18,2 C 77 % 0 lf 1021,8 hPa 0,0 l/m 1,00 h 0,00 h 637 W/m 11,4 km/h (2 Bft) 96,81 %
24.09.2017 14:00 20,6 C 27,4 C 18,9 C 70 % 0 lf 1021,7 hPa 0,0 l/m 0,97 h 0,00 h 583 W/m 13,0 km/h (3 Bft) 96,71 %
24.09.2017 15:00 21,1 C 26,9 C 19,6 C 67 % 0 lf 1021,4 hPa 0,0 l/m 1,00 h 0,00 h 553 W/m 12,6 km/h (3 Bft) 96,87 %
24.09.2017 16:00 21,3 C 25,0 C 19,2 C 65 % 0 lf 1021,1 hPa 0,0 l/m 1,00 h 0,00 h 366 W/m 13,1 km/h (3 Bft) 95,57 %
24.09.2017 17:00 20,7 C 21,4 C 18,2 C 66 % 0 lf 1020,9 hPa 0,0 l/m 0,93 h 0,00 h 199 W/m 13,2 km/h (3 Bft) 97,63 %
24.09.2017 18:00 19,8 C 18,9 C 16,5 C 70 % 0 lf 1020,9 hPa 0,0 l/m 0,00 h 0,00 h 60 W/m 10,5 km/h (2 Bft) 96,61 %
24.09.2017 19:00 18,1 C 15,8 C 13,5 C 75 % 0 lf 1021,1 hPa 0,0 l/m 0,00 h 0,00 h 11 W/m 4,9 km/h (1 Bft) 96,45 %
24.09.2017 20:00 16,0 C 13,3 C 11,4 C 81 % 0 lf 1021,3 hPa 0,0 l/m 0,00 h 0,00 h 2 W/m 2,7 km/h (1 Bft) 95,18 %
24.09.2017 21:00 14,4 C 12,4 C 10,5 C 85 % 0 lf 1021,5 hPa 0,0 l/m 0,00 h 0,00 h 0 W/m 1,8 km/h (1 Bft) 96,98 %
24.09.2017 22:00 13,2 C 11,3 C 9,8 C 87 % 1 lf 1021,5 hPa 0,0 l/m 0,00 h 0,00 h 5 W/m 2,0 km/h (1 Bft) 96,45 %
24.09.2017 23:00 12,7 C 11,9 C 10,1 C 91 % 0 lf 1021,5 hPa 0,0 l/m 0,00 h 0,00 h 5 W/m 7,2 km/h (2 Bft) 98,26 %
Min-Datum _ 24.09.17 24.09.17 21.09.17 21.09.17 18.09.17 18.09.17 - - - - 19.09.17 18.09.17
_ Min-Zeit 05:08 04:30 05:16 13:38 02:24 01:24 - - - - 09:44 04:05
Minimum _ 8,1 C 6,7 C 6,1 C 61 % 0 lf 1012,1 hPa - - - - 0,0 km/h (0 Bft) 3,51 %
Max-Datum _ 24.09.17 22.09.17 21.09.17 19.09.17 18.09.17 23.09.17 18.09.17 20.09.17 18.09.17 18.09.17 18.09.17 18.09.17
_ Max-Zeit 16:22 13:34 12:10 11:32 00:00 10:28 16:28 11:15 18:10 14:30 15:14 01:12
Maximum _ 21,5 C 32,8 C 23,9 C 99 % 15 lf 1024,0 hPa 4,0 l/m 0,08 h 0,07 h 876 W/m 35,6 km/h
S-SW (5 Bft)
100,00 %
Durchschnitt _ 13,3 C 14,2 C 12,0 C 88 % 6 lf 1018,9 hPa #15,0 l/m #50:54 h #8:04 h 172 W/m 7,9 km/h (2 Bft) 96,15 %
© 2017 W. Hausmann